Mitchellville, TN (37119)

2:02 AM CST on December 08, 2016 (GMT -0600)
PIC USA Building | | Change Station

Elev 689 ft 36.68 °N, 86.57 °W | Updated 1 minute ago

Overcast
Overcast
35.2 °F
Feels Like 35 °F
N
2.5
Wind Variable Wind from WNW
Gusts 4.9 mph

Today
High -- | Low -- °F
--% Chance of Precip.
Yesterday
High -- | Low -- °F
Precip. -- in
Pressure 30.29 in
Visibility 10.0 miles
Clouds Mostly Cloudy 10000 ft
Overcast 12000 ft
Windchill 35 °F
Dew Point 23 °F
Humidity 61%
Rainfall 0.00 in
Snow Depth Not available.
6:46 AM 4:30 PM
First Quarter, 61% visible
METAR KBWG 080753Z AUTO 31008KT 10SM BKN100 OVC120 02/M04 A3028 RMK AO2 SLP256 T00221044
Pressure 30.29 in
Visibility 10.0 miles
Clouds Mostly Cloudy 10000 ft
Overcast 12000 ft
Windchill 35 °F
Dew Point 23 °F
Humidity 61%
Rainfall 0.00 in
Snow Depth Not available.
6:46 AM 4:30 PM
First Quarter, 61% visible
METAR KBWG 080753Z AUTO 31008KT 10SM BKN100 OVC120 02/M04 A3028 RMK AO2 SLP256 T00221044

10-Day Weather Forecast

Almanac

Astronomy

Dec. 08, 2016 Rise Set
Actual Time
Civil Twilight
Nautical Twilight
Astronomical Twilight
Moon
Length of Visible Light
Length of Day
Tomorrow will be .
, % of the Moon is Illuminated

Today's Extremes

State Highs State Lows

Community

WunderPhotos

Upload Photos

1,956,259 photos uploaded!

WunderBlog® & News

Nearby

Air Quality

  Air Quality AQ Index Pollutant
Not available.

Snow Depth

Station Depth Elevation

Earthquake Activity

City Distance Mag. Time & Date
Minimum magnitude displayed is 2.5.

Coastal Water Temperatures

Place Temperature

Stations

Nearby Weather Stations

Station Location Temp. Windchill Dew Point Humidity Wind Precip. Elev Updated Type
                   

Watches & Warnings

There are currently no watches in effect.